sensor_id;sensor_type;location;lat;lon;timestamp;temperature;humidity
78461;SHT31;67755;51.986;5.696;2024-01-15T00:00:24;6.5;64.4
78461;SHT31;67755;51.986;5.696;2024-01-15T00:02:54;6.5;64.4
78461;SHT31;67755;51.986;5.696;2024-01-15T00:05:23;6.5;64.2
78461;SHT31;67755;51.986;5.696;2024-01-15T00:07:52;6.5;64.2
78461;SHT31;67755;51.986;5.696;2024-01-15T00:10:20;6.5;64.0
78461;SHT31;67755;51.986;5.696;2024-01-15T00:12:49;6.4;64.1
78461;SHT31;67755;51.986;5.696;2024-01-15T00:15:17;6.4;64.2
78461;SHT31;67755;51.986;5.696;2024-01-15T00:17:46;6.4;64.0
78461;SHT31;67755;51.986;5.696;2024-01-15T00:20:15;6.4;64.1
78461;SHT31;67755;51.986;5.696;2024-01-15T00:22:45;6.4;64.0
78461;SHT31;67755;51.986;5.696;2024-01-15T00:25:14;6.4;64.0
78461;SHT31;67755;51.986;5.696;2024-01-15T00:27:44;6.3;63.8
78461;SHT31;67755;51.986;5.696;2024-01-15T00:30:13;6.3;63.7
78461;SHT31;67755;51.986;5.696;2024-01-15T00:32:42;6.3;63.5
78461;SHT31;67755;51.986;5.696;2024-01-15T00:35:10;6.3;63.5
78461;SHT31;67755;51.986;5.696;2024-01-15T00:37:39;6.3;63.8
78461;SHT31;67755;51.986;5.696;2024-01-15T00:40:08;6.2;64.1
78461;SHT31;67755;51.986;5.696;2024-01-15T00:42:37;6.2;64.0
78461;SHT31;67755;51.986;5.696;2024-01-15T00:45:06;6.2;63.9
78461;SHT31;67755;51.986;5.696;2024-01-15T00:47:35;6.2;64.0
78461;SHT31;67755;51.986;5.696;2024-01-15T00:50:04;6.1;64.0
78461;SHT31;67755;51.986;5.696;2024-01-15T00:52:32;6.1;63.9
78461;SHT31;67755;51.986;5.696;2024-01-15T00:55:01;6.1;63.8
78461;SHT31;67755;51.986;5.696;2024-01-15T00:57:29;6.1;64.0
78461;SHT31;67755;51.986;5.696;2024-01-15T00:59:59;6.0;63.9
78461;SHT31;67755;51.986;5.696;2024-01-15T01:02:28;6.0;63.9
78461;SHT31;67755;51.986;5.696;2024-01-15T01:04:56;6.0;64.0
78461;SHT31;67755;51.986;5.696;2024-01-15T01:07:25;6.0;63.9
78461;SHT31;67755;51.986;5.696;2024-01-15T01:09:55;6.0;63.7
78461;SHT31;67755;51.986;5.696;2024-01-15T01:12:24;6.0;63.7
78461;SHT31;67755;51.986;5.696;2024-01-15T01:14:52;6.0;63.8
78461;SHT31;67755;51.986;5.696;2024-01-15T01:17:21;6.0;63.6
78461;SHT31;67755;51.986;5.696;2024-01-15T01:19:50;6.0;63.7
78461;SHT31;67755;51.986;5.696;2024-01-15T01:22:18;5.9;63.7
78461;SHT31;67755;51.986;5.696;2024-01-15T01:24:49;5.9;63.8
78461;SHT31;67755;51.986;5.696;2024-01-15T01:27:17;5.9;63.8
78461;SHT31;67755;51.986;5.696;2024-01-15T01:29:45;5.9;63.9
78461;SHT31;67755;51.986;5.696;2024-01-15T01:32:14;5.9;64.0
78461;SHT31;67755;51.986;5.696;2024-01-15T01:34:42;5.9;64.0
78461;SHT31;67755;51.986;5.696;2024-01-15T01:37:11;5.9;63.7
78461;SHT31;67755;51.986;5.696;2024-01-15T01:39:41;5.9;63.7
78461;SHT31;67755;51.986;5.696;2024-01-15T01:42:10;5.9;63.7
78461;SHT31;67755;51.986;5.696;2024-01-15T01:44:39;5.9;63.8
78461;SHT31;67755;51.986;5.696;2024-01-15T01:47:08;5.9;63.8
78461;SHT31;67755;51.986;5.696;2024-01-15T01:49:38;5.9;63.7
78461;SHT31;67755;51.986;5.696;2024-01-15T01:52:07;5.9;63.6
78461;SHT31;67755;51.986;5.696;2024-01-15T01:54:41;5.9;63.6
78461;SHT31;67755;51.986;5.696;2024-01-15T01:57:10;5.9;63.6
78461;SHT31;67755;51.986;5.696;2024-01-15T01:59:40;5.8;63.5
78461;SHT31;67755;51.986;5.696;2024-01-15T02:02:09;5.8;63.3
78461;SHT31;67755;51.986;5.696;2024-01-15T02:04:39;5.8;63.4
78461;SHT31;67755;51.986;5.696;2024-01-15T02:07:08;5.8;63.3
78461;SHT31;67755;51.986;5.696;2024-01-15T02:09:37;5.8;63.1
78461;SHT31;67755;51.986;5.696;2024-01-15T02:12:07;5.8;63.1
78461;SHT31;67755;51.986;5.696;2024-01-15T02:14:35;5.8;62.9
78461;SHT31;67755;51.986;5.696;2024-01-15T02:17:04;5.8;62.8
78461;SHT31;67755;51.986;5.696;2024-01-15T02:19:33;5.8;63.0
78461;SHT31;67755;51.986;5.696;2024-01-15T02:22:01;5.8;62.8
78461;SHT31;67755;51.986;5.696;2024-01-15T02:24:30;5.8;62.8
78461;SHT31;67755;51.986;5.696;2024-01-15T02:26:59;5.8;62.9
78461;SHT31;67755;51.986;5.696;2024-01-15T02:29:28;5.8;62.9
78461;SHT31;67755;51.986;5.696;2024-01-15T02:31:57;5.8;63.0
78461;SHT31;67755;51.986;5.696;2024-01-15T02:34:25;5.8;63.2
78461;SHT31;67755;51.986;5.696;2024-01-15T02:36:54;5.7;63.6
78461;SHT31;67755;51.986;5.696;2024-01-15T02:39:22;5.7;64.0
78461;SHT31;67755;51.986;5.696;2024-01-15T02:41:51;5.7;64.1
78461;SHT31;67755;51.986;5.696;2024-01-15T02:44:21;5.7;64.3
78461;SHT31;67755;51.986;5.696;2024-01-15T02:46:49;5.7;64.4
78461;SHT31;67755;51.986;5.696;2024-01-15T02:49:18;5.7;64.8
78461;SHT31;67755;51.986;5.696;2024-01-15T02:51:46;5.7;65.1
78461;SHT31;67755;51.986;5.696;2024-01-15T02:54:15;5.7;65.2
78461;SHT31;67755;51.986;5.696;2024-01-15T02:56:43;5.7;65.1
78461;SHT31;67755;51.986;5.696;2024-01-15T02:59:14;5.7;65.1
78461;SHT31;67755;51.986;5.696;2024-01-15T03:01:42;5.7;64.8
78461;SHT31;67755;51.986;5.696;2024-01-15T03:04:10;5.8;64.5
78461;SHT31;67755;51.986;5.696;2024-01-15T03:06:39;5.8;64.5
78461;SHT31;67755;51.986;5.696;2024-01-15T03:09:07;5.8;64.2
78461;SHT31;67755;51.986;5.696;2024-01-15T03:11:39;5.8;64.3
78461;SHT31;67755;51.986;5.696;2024-01-15T03:14:08;5.8;64.2
78461;SHT31;67755;51.986;5.696;2024-01-15T03:16:38;5.8;64.2
78461;SHT31;67755;51.986;5.696;2024-01-15T03:19:06;5.8;64.3
78461;SHT31;67755;51.986;5.696;2024-01-15T03:21:35;5.8;64.5
78461;SHT31;67755;51.986;5.696;2024-01-15T03:24:04;5.8;64.4
78461;SHT31;67755;51.986;5.696;2024-01-15T03:26:32;5.8;64.3
78461;SHT31;67755;51.986;5.696;2024-01-15T03:29:01;5.8;64.2
78461;SHT31;67755;51.986;5.696;2024-01-15T03:31:31;5.8;64.2
78461;SHT31;67755;51.986;5.696;2024-01-15T03:34:01;5.8;64.1
78461;SHT31;67755;51.986;5.696;2024-01-15T03:36:30;5.8;64.1
78461;SHT31;67755;51.986;5.696;2024-01-15T03:38:58;5.8;63.9
78461;SHT31;67755;51.986;5.696;2024-01-15T03:41:27;5.8;63.9
78461;SHT31;67755;51.986;5.696;2024-01-15T03:43:55;5.8;63.9
78461;SHT31;67755;51.986;5.696;2024-01-15T03:46:25;5.8;63.7
78461;SHT31;67755;51.986;5.696;2024-01-15T03:48:55;5.8;63.4
78461;SHT31;67755;51.986;5.696;2024-01-15T03:51:24;5.8;63.2
78461;SHT31;67755;51.986;5.696;2024-01-15T03:53:55;5.8;63.2
78461;SHT31;67755;51.986;5.696;2024-01-15T03:56:23;5.8;63.2
78461;SHT31;67755;51.986;5.696;2024-01-15T03:58:52;5.8;63.3
78461;SHT31;67755;51.986;5.696;2024-01-15T04:01:22;5.8;63.4
78461;SHT31;67755;51.986;5.696;2024-01-15T04:03:51;5.8;63.7
78461;SHT31;67755;51.986;5.696;2024-01-15T04:06:21;5.8;63.9
78461;SHT31;67755;51.986;5.696;2024-01-15T04:08:49;5.8;64.2
78461;SHT31;67755;51.986;5.696;2024-01-15T04:11:18;5.8;64.5
78461;SHT31;67755;51.986;5.696;2024-01-15T04:13:46;5.8;64.5
78461;SHT31;67755;51.986;5.696;2024-01-15T04:16:15;5.8;64.5
78461;SHT31;67755;51.986;5.696;2024-01-15T04:18:44;5.8;64.7
78461;SHT31;67755;51.986;5.696;2024-01-15T04:21:13;5.8;64.7
78461;SHT31;67755;51.986;5.696;2024-01-15T04:23:43;5.8;64.7
78461;SHT31;67755;51.986;5.696;2024-01-15T04:26:11;5.8;64.9
78461;SHT31;67755;51.986;5.696;2024-01-15T04:28:40;5.8;65.0
78461;SHT31;67755;51.986;5.696;2024-01-15T04:31:08;5.8;65.0
78461;SHT31;67755;51.986;5.696;2024-01-15T04:33:37;5.8;64.9
78461;SHT31;67755;51.986;5.696;2024-01-15T04:36:06;5.8;64.8
78461;SHT31;67755;51.986;5.696;2024-01-15T04:38:35;5.9;64.7
78461;SHT31;67755;51.986;5.696;2024-01-15T04:41:08;5.9;64.7
78461;SHT31;67755;51.986;5.696;2024-01-15T04:43:37;5.9;64.7
78461;SHT31;67755;51.986;5.696;2024-01-15T04:46:07;5.9;64.7
78461;SHT31;67755;51.986;5.696;2024-01-15T04:48:36;5.9;64.8
78461;SHT31;67755;51.986;5.696;2024-01-15T04:51:08;5.9;64.6
78461;SHT31;67755;51.986;5.696;2024-01-15T04:53:37;5.8;64.4
78461;SHT31;67755;51.986;5.696;2024-01-15T04:56:06;5.8;64.6
78461;SHT31;67755;51.986;5.696;2024-01-15T04:58:34;5.8;64.5
78461;SHT31;67755;51.986;5.696;2024-01-15T05:01:03;5.8;64.3
78461;SHT31;67755;51.986;5.696;2024-01-15T05:03:32;5.8;64.1
78461;SHT31;67755;51.986;5.696;2024-01-15T05:06:00;5.8;64.2
78461;SHT31;67755;51.986;5.696;2024-01-15T05:08:29;5.8;64.0
78461;SHT31;67755;51.986;5.696;2024-01-15T05:10:57;5.8;63.8
78461;SHT31;67755;51.986;5.696;2024-01-15T05:13:26;5.8;63.8
78461;SHT31;67755;51.986;5.696;2024-01-15T05:15:54;5.8;64.0
78461;SHT31;67755;51.986;5.696;2024-01-15T05:18:25;5.8;64.0
78461;SHT31;67755;51.986;5.696;2024-01-15T05:20:57;5.8;64.3
78461;SHT31;67755;51.986;5.696;2024-01-15T05:23:26;5.8;64.5
78461;SHT31;67755;51.986;5.696;2024-01-15T05:25:54;5.8;64.7
78461;SHT31;67755;51.986;5.696;2024-01-15T05:28:30;5.8;64.9
78461;SHT31;67755;51.986;5.696;2024-01-15T05:30:59;5.8;65.1
78461;SHT31;67755;51.986;5.696;2024-01-15T05:33:28;5.8;65.2
78461;SHT31;67755;51.986;5.696;2024-01-15T05:35:56;5.8;65.3
78461;SHT31;67755;51.986;5.696;2024-01-15T05:38:25;5.8;65.4
78461;SHT31;67755;51.986;5.696;2024-01-15T05:40:54;5.8;65.5
78461;SHT31;67755;51.986;5.696;2024-01-15T05:43:22;5.8;65.4
78461;SHT31;67755;51.986;5.696;2024-01-15T05:45:51;5.7;65.5
78461;SHT31;67755;51.986;5.696;2024-01-15T05:48:19;5.7;65.7
78461;SHT31;67755;51.986;5.696;2024-01-15T05:50:49;5.7;65.8
78461;SHT31;67755;51.986;5.696;2024-01-15T05:53:20;5.7;65.8
78461;SHT31;67755;51.986;5.696;2024-01-15T05:55:50;5.7;65.9
78461;SHT31;67755;51.986;5.696;2024-01-15T05:58:18;5.7;66.1
78461;SHT31;67755;51.986;5.696;2024-01-15T06:00:47;5.7;66.1
78461;SHT31;67755;51.986;5.696;2024-01-15T06:03:16;5.7;66.2
78461;SHT31;67755;51.986;5.696;2024-01-15T06:05:45;5.7;66.2
78461;SHT31;67755;51.986;5.696;2024-01-15T06:08:13;5.7;66.2
78461;SHT31;67755;51.986;5.696;2024-01-15T06:10:43;5.7;66.3
78461;SHT31;67755;51.986;5.696;2024-01-15T06:13:11;5.7;66.3
78461;SHT31;67755;51.986;5.696;2024-01-15T06:15:40;5.7;66.2
78461;SHT31;67755;51.986;5.696;2024-01-15T06:18:10;5.7;66.3
78461;SHT31;67755;51.986;5.696;2024-01-15T06:20:39;5.7;66.4
78461;SHT31;67755;51.986;5.696;2024-01-15T06:23:08;5.7;66.4
78461;SHT31;67755;51.986;5.696;2024-01-15T06:25:36;5.7;66.4
78461;SHT31;67755;51.986;5.696;2024-01-15T06:28:05;5.7;66.5
78461;SHT31;67755;51.986;5.696;2024-01-15T06:30:34;5.7;66.6
78461;SHT31;67755;51.986;5.696;2024-01-15T06:33:04;5.7;66.6
78461;SHT31;67755;51.986;5.696;2024-01-15T06:35:33;5.7;66.5
78461;SHT31;67755;51.986;5.696;2024-01-15T06:38:01;5.7;66.4
78461;SHT31;67755;51.986;5.696;2024-01-15T06:40:30;5.7;66.4
78461;SHT31;67755;51.986;5.696;2024-01-15T06:42:58;5.7;66.1
78461;SHT31;67755;51.986;5.696;2024-01-15T06:45:27;5.8;66.1
78461;SHT31;67755;51.986;5.696;2024-01-15T06:47:55;5.8;65.8
78461;SHT31;67755;51.986;5.696;2024-01-15T06:50:24;5.7;65.6
78461;SHT31;67755;51.986;5.696;2024-01-15T06:52:52;5.7;65.8
78461;SHT31;67755;51.986;5.696;2024-01-15T06:55:21;5.7;65.9
78461;SHT31;67755;51.986;5.696;2024-01-15T06:57:51;5.7;65.9
78461;SHT31;67755;51.986;5.696;2024-01-15T07:00:21;5.7;66.0
78461;SHT31;67755;51.986;5.696;2024-01-15T07:02:49;5.7;66.1
78461;SHT31;67755;51.986;5.696;2024-01-15T07:05:19;5.7;66.1
78461;SHT31;67755;51.986;5.696;2024-01-15T07:07:48;5.7;66.2
78461;SHT31;67755;51.986;5.696;2024-01-15T07:10:17;5.7;66.2
78461;SHT31;67755;51.986;5.696;2024-01-15T07:12:45;5.7;66.2
78461;SHT31;67755;51.986;5.696;2024-01-15T07:15:14;5.7;66.2
78461;SHT31;67755;51.986;5.696;2024-01-15T07:17:43;5.7;66.2
78461;SHT31;67755;51.986;5.696;2024-01-15T07:20:17;5.7;66.1
78461;SHT31;67755;51.986;5.696;2024-01-15T07:22:45;5.7;66.1
78461;SHT31;67755;51.986;5.696;2024-01-15T07:25:15;5.7;66.1
78461;SHT31;67755;51.986;5.696;2024-01-15T07:27:45;5.7;66.0
78461;SHT31;67755;51.986;5.696;2024-01-15T07:30:13;5.7;66.0
78461;SHT31;67755;51.986;5.696;2024-01-15T07:32:42;5.7;65.9
78461;SHT31;67755;51.986;5.696;2024-01-15T07:35:13;5.7;65.8
78461;SHT31;67755;51.986;5.696;2024-01-15T07:37:41;5.7;65.8
78461;SHT31;67755;51.986;5.696;2024-01-15T07:40:11;5.7;65.9
78461;SHT31;67755;51.986;5.696;2024-01-15T07:42:39;5.7;66.0
78461;SHT31;67755;51.986;5.696;2024-01-15T07:45:10;5.7;66.0
78461;SHT31;67755;51.986;5.696;2024-01-15T07:47:39;5.7;66.0
78461;SHT31;67755;51.986;5.696;2024-01-15T07:50:07;5.7;65.9
78461;SHT31;67755;51.986;5.696;2024-01-15T07:52:36;5.7;65.7
78461;SHT31;67755;51.986;5.696;2024-01-15T07:55:07;5.7;65.9
78461;SHT31;67755;51.986;5.696;2024-01-15T07:57:36;5.7;66.0
78461;SHT31;67755;51.986;5.696;2024-01-15T08:00:06;5.6;66.1
78461;SHT31;67755;51.986;5.696;2024-01-15T08:02:35;5.6;66.2
78461;SHT31;67755;51.986;5.696;2024-01-15T08:05:05;5.6;66.4
78461;SHT31;67755;51.986;5.696;2024-01-15T08:07:33;5.6;66.3
78461;SHT31;67755;51.986;5.696;2024-01-15T08:10:03;5.6;66.4
78461;SHT31;67755;51.986;5.696;2024-01-15T08:12:31;5.6;66.5
78461;SHT31;67755;51.986;5.696;2024-01-15T08:15:00;5.6;66.6
78461;SHT31;67755;51.986;5.696;2024-01-15T08:17:28;5.6;66.5
78461;SHT31;67755;51.986;5.696;2024-01-15T08:19:58;5.6;66.5
78461;SHT31;67755;51.986;5.696;2024-01-15T08:22:27;5.6;66.5
78461;SHT31;67755;51.986;5.696;2024-01-15T08:24:56;5.6;66.6
78461;SHT31;67755;51.986;5.696;2024-01-15T08:27:24;5.6;66.6
78461;SHT31;67755;51.986;5.696;2024-01-15T08:29:53;5.6;66.5
78461;SHT31;67755;51.986;5.696;2024-01-15T08:32:21;5.6;66.5
78461;SHT31;67755;51.986;5.696;2024-01-15T08:34:51;5.6;66.4
78461;SHT31;67755;51.986;5.696;2024-01-15T08:37:20;5.6;66.5
78461;SHT31;67755;51.986;5.696;2024-01-15T08:39:48;5.7;66.4
78461;SHT31;67755;51.986;5.696;2024-01-15T08:42:17;5.7;66.3
78461;SHT31;67755;51.986;5.696;2024-01-15T08:44:45;5.7;66.4
78461;SHT31;67755;51.986;5.696;2024-01-15T08:47:15;5.7;66.3
78461;SHT31;67755;51.986;5.696;2024-01-15T08:49:44;5.7;66.2
78461;SHT31;67755;51.986;5.696;2024-01-15T08:52:12;5.7;66.1
78461;SHT31;67755;51.986;5.696;2024-01-15T08:54:42;5.8;66.0
78461;SHT31;67755;51.986;5.696;2024-01-15T08:57:10;5.8;66.0
78461;SHT31;67755;51.986;5.696;2024-01-15T08:59:39;5.8;66.0
78461;SHT31;67755;51.986;5.696;2024-01-15T09:02:08;5.8;65.9
78461;SHT31;67755;51.986;5.696;2024-01-15T09:04:37;5.8;65.9
78461;SHT31;67755;51.986;5.696;2024-01-15T09:07:07;5.8;65.8
78461;SHT31;67755;51.986;5.696;2024-01-15T09:09:36;5.8;66.0
78461;SHT31;67755;51.986;5.696;2024-01-15T09:12:05;5.8;66.0
78461;SHT31;67755;51.986;5.696;2024-01-15T09:14:34;5.8;66.2
78461;SHT31;67755;51.986;5.696;2024-01-15T09:17:06;5.8;66.3
78461;SHT31;67755;51.986;5.696;2024-01-15T09:19:34;5.8;66.1
78461;SHT31;67755;51.986;5.696;2024-01-15T09:22:03;5.8;65.9
78461;SHT31;67755;51.986;5.696;2024-01-15T09:24:31;5.9;66.0
78461;SHT31;67755;51.986;5.696;2024-01-15T09:27:01;5.9;65.9
78461;SHT31;67755;51.986;5.696;2024-01-15T09:29:30;5.9;65.9
78461;SHT31;67755;51.986;5.696;2024-01-15T09:31:59;5.9;66.0
78461;SHT31;67755;51.986;5.696;2024-01-15T09:34:29;5.9;66.0
78461;SHT31;67755;51.986;5.696;2024-01-15T09:36:58;5.9;65.8
78461;SHT31;67755;51.986;5.696;2024-01-15T09:39:28;5.9;65.8
78461;SHT31;67755;51.986;5.696;2024-01-15T09:42:02;6.0;65.5
78461;SHT31;67755;51.986;5.696;2024-01-15T09:44:32;6.0;65.2
78461;SHT31;67755;51.986;5.696;2024-01-15T09:47:01;5.9;65.2
78461;SHT31;67755;51.986;5.696;2024-01-15T09:49:31;5.9;65.3
78461;SHT31;67755;51.986;5.696;2024-01-15T09:52:01;5.9;65.3
78461;SHT31;67755;51.986;5.696;2024-01-15T09:54:30;5.9;65.1
78461;SHT31;67755;51.986;5.696;2024-01-15T09:57:00;5.9;65.2
78461;SHT31;67755;51.986;5.696;2024-01-15T09:59:30;5.9;65.1
78461;SHT31;67755;51.986;5.696;2024-01-15T10:02:00;5.9;65.4
78461;SHT31;67755;51.986;5.696;2024-01-15T10:04:29;5.9;65.6
78461;SHT31;67755;51.986;5.696;2024-01-15T10:07:01;5.9;65.9
78461;SHT31;67755;51.986;5.696;2024-01-15T10:09:29;5.9;66.3
78461;SHT31;67755;51.986;5.696;2024-01-15T10:12:00;5.9;66.1
78461;SHT31;67755;51.986;5.696;2024-01-15T10:14:30;5.9;66.0
78461;SHT31;67755;51.986;5.696;2024-01-15T10:16:59;5.9;65.7
78461;SHT31;67755;51.986;5.696;2024-01-15T10:19:27;5.9;65.8
78461;SHT31;67755;51.986;5.696;2024-01-15T10:21:58;5.9;65.8
78461;SHT31;67755;51.986;5.696;2024-01-15T10:24:27;5.9;65.8
78461;SHT31;67755;51.986;5.696;2024-01-15T10:27:05;5.9;65.6
78461;SHT31;67755;51.986;5.696;2024-01-15T10:29:34;5.9;65.6
78461;SHT31;67755;51.986;5.696;2024-01-15T10:32:03;5.9;65.7
78461;SHT31;67755;51.986;5.696;2024-01-15T10:34:38;5.9;66.2
78461;SHT31;67755;51.986;5.696;2024-01-15T10:37:10;5.9;67.1
78461;SHT31;67755;51.986;5.696;2024-01-15T10:39:39;5.9;67.7
78461;SHT31;67755;51.986;5.696;2024-01-15T10:42:09;5.9;67.7
78461;SHT31;67755;51.986;5.696;2024-01-15T10:44:38;6.0;67.4
78461;SHT31;67755;51.986;5.696;2024-01-15T10:47:07;6.0;67.4
78461;SHT31;67755;51.986;5.696;2024-01-15T10:49:35;6.1;67.9
78461;SHT31;67755;51.986;5.696;2024-01-15T10:52:05;6.1;67.9
78461;SHT31;67755;51.986;5.696;2024-01-15T10:54:34;6.2;66.8
78461;SHT31;67755;51.986;5.696;2024-01-15T10:57:06;6.2;66.0
78461;SHT31;67755;51.986;5.696;2024-01-15T10:59:36;6.2;65.4
78461;SHT31;67755;51.986;5.696;2024-01-15T11:02:05;6.2;64.7
78461;SHT31;67755;51.986;5.696;2024-01-15T11:04:36;6.2;64.5
78461;SHT31;67755;51.986;5.696;2024-01-15T11:07:05;6.2;64.6
78461;SHT31;67755;51.986;5.696;2024-01-15T11:09:35;6.2;64.4
78461;SHT31;67755;51.986;5.696;2024-01-15T11:12:11;6.2;64.6
78461;SHT31;67755;51.986;5.696;2024-01-15T11:14:46;6.2;64.7
78461;SHT31;67755;51.986;5.696;2024-01-15T11:17:16;6.2;64.8
78461;SHT31;67755;51.986;5.696;2024-01-15T11:19:47;6.3;64.9
78461;SHT31;67755;51.986;5.696;2024-01-15T11:24:35;6.3;64.8
78461;SHT31;67755;51.986;5.696;2024-01-15T11:27:05;6.3;64.9
78461;SHT31;67755;51.986;5.696;2024-01-15T11:29:35;6.3;65.1
78461;SHT31;67755;51.986;5.696;2024-01-15T11:32:05;6.3;65.5
78461;SHT31;67755;51.986;5.696;2024-01-15T11:34:57;6.3;65.4
78461;SHT31;67755;51.986;5.696;2024-01-15T11:37:29;6.3;65.6
78461;SHT31;67755;51.986;5.696;2024-01-15T11:40:03;6.3;65.4
78461;SHT31;67755;51.986;5.696;2024-01-15T11:42:37;6.3;65.5
78461;SHT31;67755;51.986;5.696;2024-01-15T11:45:06;6.4;65.6
78461;SHT31;67755;51.986;5.696;2024-01-15T11:48:11;6.4;65.5
78461;SHT31;67755;51.986;5.696;2024-01-15T11:50:42;6.4;65.4
78461;SHT31;67755;51.986;5.696;2024-01-15T11:53:36;6.4;65.4
78461;SHT31;67755;51.986;5.696;2024-01-15T11:56:14;6.4;65.3
78461;SHT31;67755;51.986;5.696;2024-01-15T11:58:43;6.4;65.6
78461;SHT31;67755;51.986;5.696;2024-01-15T12:01:12;6.4;66.1
78461;SHT31;67755;51.986;5.696;2024-01-15T12:03:46;6.4;66.6
78461;SHT31;67755;51.986;5.696;2024-01-15T12:06:15;6.4;66.6
78461;SHT31;67755;51.986;5.696;2024-01-15T12:08:43;6.4;66.5
78461;SHT31;67755;51.986;5.696;2024-01-15T12:11:16;6.4;66.3
78461;SHT31;67755;51.986;5.696;2024-01-15T12:13:47;6.5;66.4
78461;SHT31;67755;51.986;5.696;2024-01-15T12:16:16;6.5;65.6
78461;SHT31;67755;51.986;5.696;2024-01-15T12:18:45;6.5;65.8
78461;SHT31;67755;51.986;5.696;2024-01-15T12:21:13;6.5;66.5
78461;SHT31;67755;51.986;5.696;2024-01-15T12:23:42;6.5;66.7
78461;SHT31;67755;51.986;5.696;2024-01-15T12:26:11;6.5;66.4
78461;SHT31;67755;51.986;5.696;2024-01-15T12:28:39;6.5;66.1
78461;SHT31;67755;51.986;5.696;2024-01-15T12:31:08;6.5;65.8
78461;SHT31;67755;51.986;5.696;2024-01-15T12:33:36;6.5;65.9
78461;SHT31;67755;51.986;5.696;2024-01-15T12:36:06;6.5;65.4
78461;SHT31;67755;51.986;5.696;2024-01-15T12:38:34;6.5;66.0
78461;SHT31;67755;51.986;5.696;2024-01-15T12:41:03;6.5;66.2
78461;SHT31;67755;51.986;5.696;2024-01-15T12:43:32;6.6;66.3
78461;SHT31;67755;51.986;5.696;2024-01-15T12:46:01;6.6;66.8
78461;SHT31;67755;51.986;5.696;2024-01-15T12:48:30;6.6;66.1
78461;SHT31;67755;51.986;5.696;2024-01-15T12:50:58;6.6;65.9
78461;SHT31;67755;51.986;5.696;2024-01-15T12:53:28;6.6;65.3
78461;SHT31;67755;51.986;5.696;2024-01-15T12:55:57;6.6;65.0
78461;SHT31;67755;51.986;5.696;2024-01-15T12:58:25;6.6;64.8
78461;SHT31;67755;51.986;5.696;2024-01-15T13:00:54;6.6;65.2
78461;SHT31;67755;51.986;5.696;2024-01-15T13:03:24;6.6;64.6
78461;SHT31;67755;51.986;5.696;2024-01-15T13:05:52;6.6;65.1
78461;SHT31;67755;51.986;5.696;2024-01-15T13:08:23;6.6;65.6
78461;SHT31;67755;51.986;5.696;2024-01-15T13:10:53;6.5;64.7
78461;SHT31;67755;51.986;5.696;2024-01-15T13:13:23;6.5;64.2
78461;SHT31;67755;51.986;5.696;2024-01-15T13:15:52;6.5;64.2
78461;SHT31;67755;51.986;5.696;2024-01-15T13:18:21;6.5;64.5
78461;SHT31;67755;51.986;5.696;2024-01-15T13:20:50;6.5;64.6
78461;SHT31;67755;51.986;5.696;2024-01-15T13:23:18;6.5;64.0
78461;SHT31;67755;51.986;5.696;2024-01-15T13:25:47;6.4;64.5
78461;SHT31;67755;51.986;5.696;2024-01-15T13:28:16;6.4;64.3
78461;SHT31;67755;51.986;5.696;2024-01-15T13:30:45;6.4;64.1
78461;SHT31;67755;51.986;5.696;2024-01-15T13:33:14;6.4;64.3
78461;SHT31;67755;51.986;5.696;2024-01-15T13:35:42;6.4;64.4
78461;SHT31;67755;51.986;5.696;2024-01-15T13:38:12;6.4;64.6
78461;SHT31;67755;51.986;5.696;2024-01-15T13:40:41;6.4;64.5
78461;SHT31;67755;51.986;5.696;2024-01-15T13:43:11;6.4;64.2
78461;SHT31;67755;51.986;5.696;2024-01-15T13:45:41;6.4;64.3
78461;SHT31;67755;51.986;5.696;2024-01-15T13:48:10;6.4;63.5
78461;SHT31;67755;51.986;5.696;2024-01-15T13:50:38;6.4;63.9
78461;SHT31;67755;51.986;5.696;2024-01-15T13:53:06;6.4;63.8
78461;SHT31;67755;51.986;5.696;2024-01-15T13:55:38;6.4;63.8
78461;SHT31;67755;51.986;5.696;2024-01-15T13:58:06;6.4;64.1
78461;SHT31;67755;51.986;5.696;2024-01-15T14:00:35;6.4;64.4
78461;SHT31;67755;51.986;5.696;2024-01-15T14:03:04;6.4;64.1
78461;SHT31;67755;51.986;5.696;2024-01-15T14:05:33;6.4;63.6
78461;SHT31;67755;51.986;5.696;2024-01-15T14:08:01;6.4;63.8
78461;SHT31;67755;51.986;5.696;2024-01-15T14:10:30;6.4;63.8
78461;SHT31;67755;51.986;5.696;2024-01-15T14:12:59;6.4;63.8
78461;SHT31;67755;51.986;5.696;2024-01-15T14:15:30;6.4;63.4
78461;SHT31;67755;51.986;5.696;2024-01-15T14:17:58;6.4;63.4
78461;SHT31;67755;51.986;5.696;2024-01-15T14:20:29;6.4;63.1
78461;SHT31;67755;51.986;5.696;2024-01-15T14:22:58;6.4;63.3
78461;SHT31;67755;51.986;5.696;2024-01-15T14:25:27;6.4;63.9
78461;SHT31;67755;51.986;5.696;2024-01-15T14:27:55;6.4;64.0
78461;SHT31;67755;51.986;5.696;2024-01-15T14:30:25;6.3;63.7
78461;SHT31;67755;51.986;5.696;2024-01-15T14:32:53;6.3;64.0
78461;SHT31;67755;51.986;5.696;2024-01-15T14:35:22;6.3;64.2
78461;SHT31;67755;51.986;5.696;2024-01-15T14:37:50;6.3;64.1
78461;SHT31;67755;51.986;5.696;2024-01-15T14:40:21;6.3;64.3
78461;SHT31;67755;51.986;5.696;2024-01-15T14:42:49;6.3;64.5
78461;SHT31;67755;51.986;5.696;2024-01-15T14:45:18;6.3;64.6
78461;SHT31;67755;51.986;5.696;2024-01-15T14:47:46;6.3;64.6
78461;SHT31;67755;51.986;5.696;2024-01-15T14:50:15;6.3;64.4
78461;SHT31;67755;51.986;5.696;2024-01-15T14:52:43;6.2;64.5
78461;SHT31;67755;51.986;5.696;2024-01-15T14:55:12;6.2;64.1
78461;SHT31;67755;51.986;5.696;2024-01-15T14:57:41;6.2;64.2
78461;SHT31;67755;51.986;5.696;2024-01-15T15:00:10;6.2;64.3
78461;SHT31;67755;51.986;5.696;2024-01-15T15:02:40;6.2;64.6
78461;SHT31;67755;51.986;5.696;2024-01-15T15:05:09;6.2;64.7
78461;SHT31;67755;51.986;5.696;2024-01-15T15:07:39;6.2;64.4
78461;SHT31;67755;51.986;5.696;2024-01-15T15:10:09;6.2;63.7
78461;SHT31;67755;51.986;5.696;2024-01-15T15:12:38;6.2;63.8
78461;SHT31;67755;51.986;5.696;2024-01-15T15:15:07;6.2;63.5
78461;SHT31;67755;51.986;5.696;2024-01-15T15:17:37;6.2;63.3
78461;SHT31;67755;51.986;5.696;2024-01-15T15:20:07;6.2;63.5
78461;SHT31;67755;51.986;5.696;2024-01-15T15:22:38;6.2;63.3
78461;SHT31;67755;51.986;5.696;2024-01-15T15:25:07;6.2;63.6
78461;SHT31;67755;51.986;5.696;2024-01-15T15:27:38;6.2;63.6
78461;SHT31;67755;51.986;5.696;2024-01-15T15:30:08;6.2;63.8
78461;SHT31;67755;51.986;5.696;2024-01-15T15:32:37;6.2;63.8
78461;SHT31;67755;51.986;5.696;2024-01-15T15:35:06;6.2;63.8
78461;SHT31;67755;51.986;5.696;2024-01-15T15:37:38;6.2;63.5
78461;SHT31;67755;51.986;5.696;2024-01-15T15:40:10;6.2;63.4
78461;SHT31;67755;51.986;5.696;2024-01-15T15:42:39;6.1;63.5
78461;SHT31;67755;51.986;5.696;2024-01-15T15:45:09;6.1;63.2
78461;SHT31;67755;51.986;5.696;2024-01-15T15:47:38;6.1;63.3
78461;SHT31;67755;51.986;5.696;2024-01-15T15:50:07;6.1;63.3
78461;SHT31;67755;51.986;5.696;2024-01-15T15:52:36;6.1;63.3
78461;SHT31;67755;51.986;5.696;2024-01-15T15:55:05;6.1;63.5
78461;SHT31;67755;51.986;5.696;2024-01-15T15:57:35;6.0;63.8
78461;SHT31;67755;51.986;5.696;2024-01-15T16:00:04;6.0;64.1
78461;SHT31;67755;51.986;5.696;2024-01-15T16:02:33;6.0;64.4
78461;SHT31;67755;51.986;5.696;2024-01-15T16:05:01;6.0;64.6
78461;SHT31;67755;51.986;5.696;2024-01-15T16:07:35;6.0;64.5
78461;SHT31;67755;51.986;5.696;2024-01-15T16:10:04;6.0;64.4
78461;SHT31;67755;51.986;5.696;2024-01-15T16:12:33;5.9;64.5
78461;SHT31;67755;51.986;5.696;2024-01-15T16:15:02;5.9;64.5
78461;SHT31;67755;51.986;5.696;2024-01-15T16:17:31;5.9;64.9
78461;SHT31;67755;51.986;5.696;2024-01-15T16:19:59;5.9;65.2
78461;SHT31;67755;51.986;5.696;2024-01-15T16:22:28;5.9;65.0
78461;SHT31;67755;51.986;5.696;2024-01-15T16:24:57;5.9;65.0
78461;SHT31;67755;51.986;5.696;2024-01-15T16:27:25;5.9;65.2
78461;SHT31;67755;51.986;5.696;2024-01-15T16:29:54;5.9;65.4
78461;SHT31;67755;51.986;5.696;2024-01-15T16:32:23;5.8;65.2